sensor_id;sensor_type;location;lat;lon;timestamp;P1;durP1;ratioP1;P2;durP2;ratioP2
66830;SDS011;53739;44.224;22.528;2022-07-10T00:02:16;5.60;;;3.97;;
66830;SDS011;53739;44.224;22.528;2022-07-10T00:04:42;6.90;;;4.40;;
66830;SDS011;53739;44.224;22.528;2022-07-10T00:07:08;8.27;;;4.22;;
66830;SDS011;53739;44.224;22.528;2022-07-10T00:09:33;6.60;;;4.05;;
66830;SDS011;53739;44.224;22.528;2022-07-10T00:11:59;6.43;;;3.83;;
66830;SDS011;53739;44.224;22.528;2022-07-10T00:14:25;6.70;;;3.78;;
66830;SDS011;53739;44.224;22.528;2022-07-10T00:16:51;8.35;;;4.35;;
66830;SDS011;53739;44.224;22.528;2022-07-10T00:19:17;5.18;;;3.97;;
66830;SDS011;53739;44.224;22.528;2022-07-10T00:21:43;7.50;;;4.25;;
66830;SDS011;53739;44.224;22.528;2022-07-10T00:24:08;6.97;;;4.78;;
66830;SDS011;53739;44.224;22.528;2022-07-10T00:26:35;7.25;;;4.07;;
66830;SDS011;53739;44.224;22.528;2022-07-10T00:29:01;6.68;;;4.43;;
66830;SDS011;53739;44.224;22.528;2022-07-10T00:31:27;7.40;;;4.25;;
66830;SDS011;53739;44.224;22.528;2022-07-10T00:33:52;5.57;;;3.58;;
66830;SDS011;53739;44.224;22.528;2022-07-10T00:36:18;5.28;;;3.80;;
66830;SDS011;53739;44.224;22.528;2022-07-10T00:38:44;6.97;;;4.45;;
66830;SDS011;53739;44.224;22.528;2022-07-10T00:41:10;8.52;;;4.72;;
66830;SDS011;53739;44.224;22.528;2022-07-10T00:43:52;7.70;;;3.78;;
66830;SDS011;53739;44.224;22.528;2022-07-10T00:46:23;5.60;;;4.30;;
66830;SDS011;53739;44.224;22.528;2022-07-10T00:48:50;7.30;;;4.40;;
66830;SDS011;53739;44.224;22.528;2022-07-10T00:51:16;7.45;;;4.07;;
66830;SDS011;53739;44.224;22.528;2022-07-10T00:53:47;6.47;;;4.10;;
66830;SDS011;53739;44.224;22.528;2022-07-10T00:56:17;6.90;;;4.30;;
66830;SDS011;53739;44.224;22.528;2022-07-10T00:58:48;7.55;;;4.38;;
66830;SDS011;53739;44.224;22.528;2022-07-10T01:01:14;5.30;;;3.97;;
66830;SDS011;53739;44.224;22.528;2022-07-10T01:03:41;5.57;;;4.05;;
66830;SDS011;53739;44.224;22.528;2022-07-10T01:06:08;7.07;;;4.50;;
66830;SDS011;53739;44.224;22.528;2022-07-10T01:08:35;8.43;;;4.10;;
66830;SDS011;53739;44.224;22.528;2022-07-10T01:11:01;5.85;;;4.40;;
66830;SDS011;53739;44.224;22.528;2022-07-10T01:13:27;9.43;;;4.25;;
66830;SDS011;53739;44.224;22.528;2022-07-10T01:15:53;6.20;;;4.20;;
66830;SDS011;53739;44.224;22.528;2022-07-10T01:18:19;5.72;;;3.97;;
66830;SDS011;53739;44.224;22.528;2022-07-10T01:20:45;11.32;;;3.88;;
66830;SDS011;53739;44.224;22.528;2022-07-10T01:23:11;10.95;;;3.78;;
66830;SDS011;53739;44.224;22.528;2022-07-10T01:25:37;7.85;;;4.40;;
66830;SDS011;53739;44.224;22.528;2022-07-10T01:28:03;11.82;;;4.53;;
66830;SDS011;53739;44.224;22.528;2022-07-10T01:30:29;4.35;;;3.60;;
66830;SDS011;53739;44.224;22.528;2022-07-10T01:32:54;8.77;;;4.32;;
66830;SDS011;53739;44.224;22.528;2022-07-10T01:35:20;9.10;;;4.13;;
66830;SDS011;53739;44.224;22.528;2022-07-10T01:37:46;6.40;;;4.28;;
66830;SDS011;53739;44.224;22.528;2022-07-10T01:40:12;6.68;;;4.70;;
66830;SDS011;53739;44.224;22.528;2022-07-10T01:42:38;9.02;;;4.38;;
66830;SDS011;53739;44.224;22.528;2022-07-10T01:45:05;7.15;;;4.80;;
66830;SDS011;53739;44.224;22.528;2022-07-10T01:47:35;7.07;;;4.03;;
66830;SDS011;53739;44.224;22.528;2022-07-10T01:50:01;8.20;;;4.43;;
66830;SDS011;53739;44.224;22.528;2022-07-10T01:52:27;5.50;;;4.00;;
66830;SDS011;53739;44.224;22.528;2022-07-10T01:54:53;10.05;;;4.90;;
66830;SDS011;53739;44.224;22.528;2022-07-10T01:57:19;6.25;;;3.90;;
66830;SDS011;53739;44.224;22.528;2022-07-10T01:59:45;9.20;;;4.55;;
66830;SDS011;53739;44.224;22.528;2022-07-10T02:02:11;8.75;;;4.43;;
66830;SDS011;53739;44.224;22.528;2022-07-10T02:04:37;5.57;;;4.32;;
66830;SDS011;53739;44.224;22.528;2022-07-10T02:07:12;5.82;;;4.10;;
66830;SDS011;53739;44.224;22.528;2022-07-10T02:09:40;7.35;;;4.65;;
66830;SDS011;53739;44.224;22.528;2022-07-10T02:12:07;5.97;;;4.20;;
66830;SDS011;53739;44.224;22.528;2022-07-10T02:14:35;6.57;;;4.20;;
66830;SDS011;53739;44.224;22.528;2022-07-10T02:17:01;6.22;;;4.45;;
66830;SDS011;53739;44.224;22.528;2022-07-10T02:19:28;7.20;;;4.22;;
66830;SDS011;53739;44.224;22.528;2022-07-10T02:21:53;6.13;;;4.68;;
66830;SDS011;53739;44.224;22.528;2022-07-10T02:24:19;7.43;;;4.10;;
66830;SDS011;53739;44.224;22.528;2022-07-10T02:26:45;4.40;;;4.00;;
66830;SDS011;53739;44.224;22.528;2022-07-10T02:29:11;6.18;;;4.03;;
66830;SDS011;53739;44.224;22.528;2022-07-10T02:31:37;7.70;;;4.00;;
66830;SDS011;53739;44.224;22.528;2022-07-10T02:34:09;8.02;;;4.22;;
66830;SDS011;53739;44.224;22.528;2022-07-10T02:36:36;8.40;;;4.38;;
66830;SDS011;53739;44.224;22.528;2022-07-10T02:39:03;6.43;;;4.53;;
66830;SDS011;53739;44.224;22.528;2022-07-10T02:41:30;5.35;;;4.43;;
66830;SDS011;53739;44.224;22.528;2022-07-10T02:43:57;8.48;;;4.40;;
66830;SDS011;53739;44.224;22.528;2022-07-10T02:46:23;7.03;;;4.25;;
66830;SDS011;53739;44.224;22.528;2022-07-10T02:48:49;7.55;;;4.30;;
66830;SDS011;53739;44.224;22.528;2022-07-10T02:51:15;10.00;;;4.82;;
66830;SDS011;53739;44.224;22.528;2022-07-10T02:53:41;6.18;;;4.60;;
66830;SDS011;53739;44.224;22.528;2022-07-10T02:56:07;9.98;;;4.35;;
66830;SDS011;53739;44.224;22.528;2022-07-10T02:58:33;8.88;;;5.53;;
66830;SDS011;53739;44.224;22.528;2022-07-10T03:00:59;7.63;;;4.75;;
66830;SDS011;53739;44.224;22.528;2022-07-10T03:03:25;8.55;;;4.82;;
66830;SDS011;53739;44.224;22.528;2022-07-10T03:05:50;9.93;;;4.70;;
66830;SDS011;53739;44.224;22.528;2022-07-10T03:08:16;8.32;;;4.80;;
66830;SDS011;53739;44.224;22.528;2022-07-10T03:10:42;7.93;;;5.22;;
66830;SDS011;53739;44.224;22.528;2022-07-10T03:13:08;9.00;;;5.00;;
66830;SDS011;53739;44.224;22.528;2022-07-10T03:15:34;7.55;;;4.90;;
66830;SDS011;53739;44.224;22.528;2022-07-10T03:18:00;11.50;;;5.45;;
66830;SDS011;53739;44.224;22.528;2022-07-10T03:20:26;8.18;;;4.63;;
66830;SDS011;53739;44.224;22.528;2022-07-10T03:22:52;6.63;;;4.90;;
66830;SDS011;53739;44.224;22.528;2022-07-10T03:25:18;11.55;;;5.50;;
66830;SDS011;53739;44.224;22.528;2022-07-10T03:27:44;8.35;;;4.50;;
66830;SDS011;53739;44.224;22.528;2022-07-10T03:30:10;8.32;;;5.30;;
66830;SDS011;53739;44.224;22.528;2022-07-10T03:32:36;10.90;;;5.18;;
66830;SDS011;53739;44.224;22.528;2022-07-10T03:35:02;8.02;;;4.70;;
66830;SDS011;53739;44.224;22.528;2022-07-10T03:37:28;9.60;;;5.50;;
66830;SDS011;53739;44.224;22.528;2022-07-10T03:39:53;8.70;;;5.20;;
66830;SDS011;53739;44.224;22.528;2022-07-10T03:42:19;7.70;;;4.97;;
66830;SDS011;53739;44.224;22.528;2022-07-10T03:44:45;7.20;;;4.50;;
66830;SDS011;53739;44.224;22.528;2022-07-10T03:47:11;5.38;;;4.35;;
66830;SDS011;53739;44.224;22.528;2022-07-10T03:49:37;7.10;;;5.00;;
66830;SDS011;53739;44.224;22.528;2022-07-10T03:52:07;5.72;;;4.50;;
66830;SDS011;53739;44.224;22.528;2022-07-10T03:54:33;7.15;;;4.30;;
66830;SDS011;53739;44.224;22.528;2022-07-10T03:56:59;5.90;;;4.43;;
66830;SDS011;53739;44.224;22.528;2022-07-10T03:59:43;6.35;;;4.57;;
66830;SDS011;53739;44.224;22.528;2022-07-10T04:02:09;7.20;;;4.47;;
66830;SDS011;53739;44.224;22.528;2022-07-10T04:04:35;7.85;;;4.30;;
66830;SDS011;53739;44.224;22.528;2022-07-10T04:07:00;7.57;;;4.60;;
66830;SDS011;53739;44.224;22.528;2022-07-10T04:09:26;7.60;;;4.85;;
66830;SDS011;53739;44.224;22.528;2022-07-10T04:11:52;7.35;;;4.13;;
66830;SDS011;53739;44.224;22.528;2022-07-10T04:14:18;11.18;;;4.78;;
66830;SDS011;53739;44.224;22.528;2022-07-10T04:16:44;7.93;;;4.03;;
66830;SDS011;53739;44.224;22.528;2022-07-10T04:19:10;4.93;;;3.83;;
66830;SDS011;53739;44.224;22.528;2022-07-10T04:21:35;7.93;;;3.58;;
66830;SDS011;53739;44.224;22.528;2022-07-10T04:24:02;7.10;;;4.43;;
66830;SDS011;53739;44.224;22.528;2022-07-10T04:26:28;7.20;;;4.60;;
66830;SDS011;53739;44.224;22.528;2022-07-10T04:28:54;9.50;;;4.07;;
66830;SDS011;53739;44.224;22.528;2022-07-10T04:31:20;6.07;;;4.00;;
66830;SDS011;53739;44.224;22.528;2022-07-10T04:33:46;5.55;;;3.85;;
66830;SDS011;53739;44.224;22.528;2022-07-10T04:36:12;7.90;;;4.22;;
66830;SDS011;53739;44.224;22.528;2022-07-10T04:38:37;6.75;;;3.83;;
66830;SDS011;53739;44.224;22.528;2022-07-10T04:41:03;6.22;;;3.67;;
66830;SDS011;53739;44.224;22.528;2022-07-10T04:43:30;10.07;;;4.47;;
66830;SDS011;53739;44.224;22.528;2022-07-10T04:45:56;8.60;;;4.18;;
66830;SDS011;53739;44.224;22.528;2022-07-10T04:48:22;6.40;;;3.88;;
66830;SDS011;53739;44.224;22.528;2022-07-10T04:50:47;7.15;;;3.97;;
66830;SDS011;53739;44.224;22.528;2022-07-10T04:53:13;9.20;;;4.43;;
66830;SDS011;53739;44.224;22.528;2022-07-10T04:55:39;7.82;;;3.90;;
66830;SDS011;53739;44.224;22.528;2022-07-10T04:58:05;10.48;;;3.97;;
66830;SDS011;53739;44.224;22.528;2022-07-10T05:00:31;8.73;;;4.07;;
66830;SDS011;53739;44.224;22.528;2022-07-10T05:02:56;7.38;;;3.72;;
66830;SDS011;53739;44.224;22.528;2022-07-10T05:05:22;5.07;;;3.78;;
66830;SDS011;53739;44.224;22.528;2022-07-10T05:07:48;11.65;;;3.88;;
66830;SDS011;53739;44.224;22.528;2022-07-10T05:10:14;11.13;;;3.80;;
66830;SDS011;53739;44.224;22.528;2022-07-10T05:12:40;6.43;;;4.25;;
66830;SDS011;53739;44.224;22.528;2022-07-10T05:15:06;9.07;;;3.40;;
66830;SDS011;53739;44.224;22.528;2022-07-10T05:17:32;7.05;;;3.95;;
66830;SDS011;53739;44.224;22.528;2022-07-10T05:19:58;8.88;;;4.15;;
66830;SDS011;53739;44.224;22.528;2022-07-10T05:22:24;5.55;;;3.45;;
66830;SDS011;53739;44.224;22.528;2022-07-10T05:24:50;7.55;;;3.40;;
66830;SDS011;53739;44.224;22.528;2022-07-10T05:27:16;9.48;;;4.22;;
66830;SDS011;53739;44.224;22.528;2022-07-10T05:29:45;5.25;;;3.35;;
66830;SDS011;53739;44.224;22.528;2022-07-10T05:32:11;8.73;;;3.80;;
66830;SDS011;53739;44.224;22.528;2022-07-10T05:34:37;7.68;;;3.83;;
66830;SDS011;53739;44.224;22.528;2022-07-10T05:37:03;6.55;;;3.45;;
66830;SDS011;53739;44.224;22.528;2022-07-10T05:39:32;4.90;;;3.05;;
66830;SDS011;53739;44.224;22.528;2022-07-10T05:41:58;7.80;;;3.33;;
66830;SDS011;53739;44.224;22.528;2022-07-10T05:44:24;10.02;;;3.90;;
66830;SDS011;53739;44.224;22.528;2022-07-10T05:46:50;6.47;;;3.47;;
66830;SDS011;53739;44.224;22.528;2022-07-10T05:49:16;11.52;;;4.13;;
66830;SDS011;53739;44.224;22.528;2022-07-10T05:51:41;7.50;;;3.75;;
66830;SDS011;53739;44.224;22.528;2022-07-10T05:54:07;7.18;;;3.53;;
66830;SDS011;53739;44.224;22.528;2022-07-10T05:56:33;8.50;;;3.53;;
66830;SDS011;53739;44.224;22.528;2022-07-10T05:59:00;6.47;;;3.47;;
66830;SDS011;53739;44.224;22.528;2022-07-10T06:01:26;9.07;;;3.45;;
66830;SDS011;53739;44.224;22.528;2022-07-10T06:03:52;6.00;;;3.40;;
66830;SDS011;53739;44.224;22.528;2022-07-10T06:06:18;6.60;;;3.58;;
66830;SDS011;53739;44.224;22.528;2022-07-10T06:08:44;7.05;;;3.40;;
66830;SDS011;53739;44.224;22.528;2022-07-10T06:11:10;8.48;;;3.17;;
66830;SDS011;53739;44.224;22.528;2022-07-10T06:13:37;7.28;;;3.15;;
66830;SDS011;53739;44.224;22.528;2022-07-10T06:16:03;6.00;;;3.42;;
66830;SDS011;53739;44.224;22.528;2022-07-10T06:18:30;7.90;;;3.25;;
66830;SDS011;53739;44.224;22.528;2022-07-10T06:20:59;7.22;;;3.80;;
66830;SDS011;53739;44.224;22.528;2022-07-10T06:23:25;6.90;;;3.47;;
66830;SDS011;53739;44.224;22.528;2022-07-10T06:25:51;4.63;;;3.03;;
66830;SDS011;53739;44.224;22.528;2022-07-10T06:28:17;7.28;;;3.15;;
66830;SDS011;53739;44.224;22.528;2022-07-10T06:30:44;6.18;;;3.20;;
66830;SDS011;53739;44.224;22.528;2022-07-10T06:33:13;5.93;;;3.30;;
66830;SDS011;53739;44.224;22.528;2022-07-10T06:35:39;8.60;;;3.15;;
66830;SDS011;53739;44.224;22.528;2022-07-10T06:38:04;6.00;;;3.40;;
66830;SDS011;53739;44.224;22.528;2022-07-10T06:40:30;7.38;;;3.60;;
66830;SDS011;53739;44.224;22.528;2022-07-10T06:43:02;7.40;;;2.92;;
66830;SDS011;53739;44.224;22.528;2022-07-10T06:45:28;4.80;;;2.90;;
66830;SDS011;53739;44.224;22.528;2022-07-10T06:47:54;5.18;;;2.85;;
66830;SDS011;53739;44.224;22.528;2022-07-10T06:50:21;5.25;;;2.80;;
66830;SDS011;53739;44.224;22.528;2022-07-10T06:52:50;6.28;;;3.22;;
66830;SDS011;53739;44.224;22.528;2022-07-10T06:55:19;7.00;;;2.92;;
66830;SDS011;53739;44.224;22.528;2022-07-10T06:57:45;7.18;;;2.45;;
66830;SDS011;53739;44.224;22.528;2022-07-10T07:00:12;10.77;;;3.50;;
66830;SDS011;53739;44.224;22.528;2022-07-10T07:02:38;4.65;;;2.88;;
66830;SDS011;53739;44.224;22.528;2022-07-10T07:05:04;5.60;;;3.40;;
66830;SDS011;53739;44.224;22.528;2022-07-10T07:07:30;5.97;;;3.10;;
66830;SDS011;53739;44.224;22.528;2022-07-10T07:09:56;4.60;;;2.65;;
66830;SDS011;53739;44.224;22.528;2022-07-10T07:12:22;8.05;;;3.00;;
66830;SDS011;53739;44.224;22.528;2022-07-10T07:14:48;6.20;;;2.90;;
66830;SDS011;53739;44.224;22.528;2022-07-10T07:17:14;6.97;;;2.50;;
66830;SDS011;53739;44.224;22.528;2022-07-10T07:19:47;7.32;;;3.33;;
66830;SDS011;53739;44.224;22.528;2022-07-10T07:22:31;5.72;;;2.90;;
66830;SDS011;53739;44.224;22.528;2022-07-10T07:25:16;4.68;;;2.78;;
66830;SDS011;53739;44.224;22.528;2022-07-10T07:27:42;11.25;;;2.63;;
66830;SDS011;53739;44.224;22.528;2022-07-10T07:30:12;5.70;;;2.70;;
66830;SDS011;53739;44.224;22.528;2022-07-10T07:32:42;7.57;;;2.80;;
66830;SDS011;53739;44.224;22.528;2022-07-10T07:35:10;4.30;;;2.28;;
66830;SDS011;53739;44.224;22.528;2022-07-10T07:37:41;5.55;;;2.72;;
66830;SDS011;53739;44.224;22.528;2022-07-10T07:40:12;9.82;;;3.05;;
66830;SDS011;53739;44.224;22.528;2022-07-10T07:42:40;8.43;;;2.97;;
66830;SDS011;53739;44.224;22.528;2022-07-10T07:45:06;4.53;;;2.50;;
66830;SDS011;53739;44.224;22.528;2022-07-10T07:50:29;5.32;;;2.63;;
66830;SDS011;53739;44.224;22.528;2022-07-10T07:52:59;4.60;;;2.80;;
66830;SDS011;53739;44.224;22.528;2022-07-10T07:55:26;6.45;;;2.45;;
66830;SDS011;53739;44.224;22.528;2022-07-10T07:57:54;4.40;;;2.53;;
66830;SDS011;53739;44.224;22.528;2022-07-10T08:00:22;7.88;;;2.72;;
66830;SDS011;53739;44.224;22.528;2022-07-10T08:02:49;4.10;;;2.53;;
66830;SDS011;53739;44.224;22.528;2022-07-10T08:05:16;6.57;;;2.65;;
66830;SDS011;53739;44.224;22.528;2022-07-10T08:07:43;4.20;;;2.63;;
66830;SDS011;53739;44.224;22.528;2022-07-10T08:10:15;5.60;;;2.40;;
66830;SDS011;53739;44.224;22.528;2022-07-10T08:12:42;4.63;;;2.65;;
66830;SDS011;53739;44.224;22.528;2022-07-10T08:15:10;5.38;;;2.38;;
66830;SDS011;53739;44.224;22.528;2022-07-10T08:17:37;5.40;;;2.80;;
66830;SDS011;53739;44.224;22.528;2022-07-10T08:20:03;5.57;;;2.85;;
66830;SDS011;53739;44.224;22.528;2022-07-10T08:22:30;4.80;;;2.33;;
66830;SDS011;53739;44.224;22.528;2022-07-10T08:24:57;4.82;;;1.90;;
66830;SDS011;53739;44.224;22.528;2022-07-10T08:27:23;7.38;;;1.98;;
66830;SDS011;53739;44.224;22.528;2022-07-10T08:29:48;3.78;;;1.90;;
66830;SDS011;53739;44.224;22.528;2022-07-10T08:32:14;6.15;;;2.25;;
66830;SDS011;53739;44.224;22.528;2022-07-10T08:34:40;6.47;;;2.42;;
66830;SDS011;53739;44.224;22.528;2022-07-10T08:37:06;3.72;;;2.00;;
66830;SDS011;53739;44.224;22.528;2022-07-10T08:39:32;3.60;;;2.20;;
66830;SDS011;53739;44.224;22.528;2022-07-10T08:41:58;5.38;;;2.33;;
66830;SDS011;53739;44.224;22.528;2022-07-10T08:44:25;5.72;;;2.53;;
66830;SDS011;53739;44.224;22.528;2022-07-10T08:46:51;5.65;;;2.28;;
66830;SDS011;53739;44.224;22.528;2022-07-10T08:49:17;3.92;;;2.20;;
66830;SDS011;53739;44.224;22.528;2022-07-10T08:54:21;5.05;;;2.30;;
66830;SDS011;53739;44.224;22.528;2022-07-10T08:56:48;9.63;;;2.80;;
66830;SDS011;53739;44.224;22.528;2022-07-10T08:59:15;7.38;;;2.38;;
66830;SDS011;53739;44.224;22.528;2022-07-10T09:01:42;5.13;;;2.33;;
66830;SDS011;53739;44.224;22.528;2022-07-10T09:04:15;4.63;;;2.58;;
66830;SDS011;53739;44.224;22.528;2022-07-10T09:06:49;5.05;;;2.50;;
66830;SDS011;53739;44.224;22.528;2022-07-10T09:09:17;6.03;;;2.63;;
66830;SDS011;53739;44.224;22.528;2022-07-10T09:11:43;6.38;;;2.10;;
66830;SDS011;53739;44.224;22.528;2022-07-10T09:14:10;6.20;;;2.50;;
66830;SDS011;53739;44.224;22.528;2022-07-10T09:16:39;6.68;;;2.20;;
66830;SDS011;53739;44.224;22.528;2022-07-10T09:22:12;6.88;;;2.30;;
66830;SDS011;53739;44.224;22.528;2022-07-10T09:24:44;3.05;;;2.08;;
66830;SDS011;53739;44.224;22.528;2022-07-10T09:27:11;5.13;;;2.03;;
66830;SDS011;53739;44.224;22.528;2022-07-10T09:29:49;5.47;;;1.80;;
66830;SDS011;53739;44.224;22.528;2022-07-10T09:32:22;5.30;;;2.23;;
66830;SDS011;53739;44.224;22.528;2022-07-10T09:34:48;8.20;;;2.13;;
66830;SDS011;53739;44.224;22.528;2022-07-10T09:37:38;3.17;;;2.10;;
66830;SDS011;53739;44.224;22.528;2022-07-10T09:40:06;4.53;;;2.30;;
66830;SDS011;53739;44.224;22.528;2022-07-10T09:42:39;6.75;;;2.33;;
66830;SDS011;53739;44.224;22.528;2022-07-10T09:47:38;3.75;;;1.92;;
66830;SDS011;53739;44.224;22.528;2022-07-10T09:50:08;5.25;;;1.92;;
66830;SDS011;53739;44.224;22.528;2022-07-10T09:52:45;3.45;;;2.00;;
66830;SDS011;53739;44.224;22.528;2022-07-10T09:55:12;5.20;;;2.10;;
66830;SDS011;53739;44.224;22.528;2022-07-10T09:57:39;6.28;;;1.88;;
66830;SDS011;53739;44.224;22.528;2022-07-10T10:00:09;6.57;;;2.63;;
66830;SDS011;53739;44.224;22.528;2022-07-10T10:02:36;4.57;;;2.10;;
66830;SDS011;53739;44.224;22.528;2022-07-10T10:05:03;3.00;;;2.00;;
66830;SDS011;53739;44.224;22.528;2022-07-10T10:07:30;6.60;;;2.22;;
66830;SDS011;53739;44.224;22.528;2022-07-10T10:10:00;6.35;;;2.30;;
66830;SDS011;53739;44.224;22.528;2022-07-10T10:12:35;10.00;;;2.85;;
66830;SDS011;53739;44.224;22.528;2022-07-10T10:15:07;6.80;;;2.15;;
66830;SDS011;53739;44.224;22.528;2022-07-10T10:17:36;4.43;;;2.30;;
66830;SDS011;53739;44.224;22.528;2022-07-10T10:20:03;5.43;;;2.25;;
66830;SDS011;53739;44.224;22.528;2022-07-10T10:22:49;6.68;;;2.30;;
66830;SDS011;53739;44.224;22.528;2022-07-10T10:25:20;6.85;;;2.10;;
66830;SDS011;53739;44.224;22.528;2022-07-10T10:27:48;3.10;;;2.20;;
66830;SDS011;53739;44.224;22.528;2022-07-10T10:30:16;5.55;;;2.30;;
66830;SDS011;53739;44.224;22.528;2022-07-10T10:32:42;4.22;;;2.58;;
66830;SDS011;53739;44.224;22.528;2022-07-10T10:35:08;6.80;;;2.35;;
66830;SDS011;53739;44.224;22.528;2022-07-10T10:37:40;5.43;;;2.15;;
66830;SDS011;53739;44.224;22.528;2022-07-10T10:40:09;6.93;;;2.38;;
66830;SDS011;53739;44.224;22.528;2022-07-10T10:42:54;6.18;;;2.08;;
66830;SDS011;53739;44.224;22.528;2022-07-10T10:48:13;5.13;;;2.60;;
66830;SDS011;53739;44.224;22.528;2022-07-10T10:50:53;8.23;;;2.78;;
66830;SDS011;53739;44.224;22.528;2022-07-10T10:53:21;10.38;;;2.42;;
66830;SDS011;53739;44.224;22.528;2022-07-10T10:58:36;5.32;;;2.45;;
66830;SDS011;53739;44.224;22.528;2022-07-10T11:06:38;5.18;;;2.45;;
66830;SDS011;53739;44.224;22.528;2022-07-10T11:09:29;5.97;;;2.13;;
66830;SDS011;53739;44.224;22.528;2022-07-10T11:14:38;6.47;;;2.78;;
66830;SDS011;53739;44.224;22.528;2022-07-10T11:17:06;7.25;;;2.50;;
66830;SDS011;53739;44.224;22.528;2022-07-10T11:19:32;6.45;;;2.53;;
66830;SDS011;53739;44.224;22.528;2022-07-10T11:30:18;8.30;;;3.13;;
66830;SDS011;53739;44.224;22.528;2022-07-10T11:32:44;5.47;;;2.60;;
66830;SDS011;53739;44.224;22.528;2022-07-10T11:35:13;4.95;;;2.20;;
66830;SDS011;53739;44.224;22.528;2022-07-10T11:37:49;3.85;;;1.98;;
66830;SDS011;53739;44.224;22.528;2022-07-10T11:40:18;3.40;;;1.83;;
66830;SDS011;53739;44.224;22.528;2022-07-10T11:42:52;3.38;;;2.05;;
66830;SDS011;53739;44.224;22.528;2022-07-10T11:45:26;4.32;;;1.85;;
66830;SDS011;53739;44.224;22.528;2022-07-10T11:47:57;5.43;;;1.80;;
66830;SDS011;53739;44.224;22.528;2022-07-10T11:50:24;5.20;;;2.20;;
66830;SDS011;53739;44.224;22.528;2022-07-10T11:52:51;6.22;;;2.00;;
66830;SDS011;53739;44.224;22.528;2022-07-10T11:55:20;5.88;;;1.98;;
66830;SDS011;53739;44.224;22.528;2022-07-10T11:57:47;5.40;;;2.00;;
66830;SDS011;53739;44.224;22.528;2022-07-10T12:00:26;9.75;;;3.63;;
66830;SDS011;53739;44.224;22.528;2022-07-10T12:02:53;3.80;;;1.77;;
66830;SDS011;53739;44.224;22.528;2022-07-10T12:05:36;4.00;;;1.95;;
66830;SDS011;53739;44.224;22.528;2022-07-10T12:08:03;4.18;;;1.65;;
66830;SDS011;53739;44.224;22.528;2022-07-10T12:10:30;4.82;;;2.00;;
66830;SDS011;53739;44.224;22.528;2022-07-10T12:13:04;5.28;;;2.00;;
66830;SDS011;53739;44.224;22.528;2022-07-10T12:15:36;3.92;;;1.70;;
66830;SDS011;53739;44.224;22.528;2022-07-10T12:18:19;4.38;;;2.40;;
66830;SDS011;53739;44.224;22.528;2022-07-10T12:20:47;7.10;;;2.90;;
66830;SDS011;53739;44.224;22.528;2022-07-10T12:23:15;5.07;;;3.05;;
66830;SDS011;53739;44.224;22.528;2022-07-10T12:25:42;3.38;;;2.50;;
66830;SDS011;53739;44.224;22.528;2022-07-10T12:28:09;4.97;;;3.10;;
66830;SDS011;53739;44.224;22.528;2022-07-10T12:30:38;5.32;;;3.03;;
66830;SDS011;53739;44.224;22.528;2022-07-10T12:33:09;5.28;;;2.72;;
66830;SDS011;53739;44.224;22.528;2022-07-10T12:36:00;4.55;;;2.80;;
66830;SDS011;53739;44.224;22.528;2022-07-10T12:38:30;4.05;;;3.13;;
66830;SDS011;53739;44.224;22.528;2022-07-10T12:43:38;6.72;;;2.80;;
66830;SDS011;53739;44.224;22.528;2022-07-10T12:46:14;6.85;;;3.17;;
66830;SDS011;53739;44.224;22.528;2022-07-10T12:49:27;6.82;;;3.17;;
66830;SDS011;53739;44.224;22.528;2022-07-10T12:51:41;5.57;;;2.65;;
66830;SDS011;53739;44.224;22.528;2022-07-10T12:54:34;8.27;;;3.53;;
66830;SDS011;53739;44.224;22.528;2022-07-10T12:57:05;6.53;;;3.63;;
66830;SDS011;53739;44.224;22.528;2022-07-10T12:59:32;6.10;;;3.00;;
66830;SDS011;53739;44.224;22.528;2022-07-10T13:02:18;5.45;;;2.90;;
66830;SDS011;53739;44.224;22.528;2022-07-10T13:04:52;6.38;;;3.15;;
66830;SDS011;53739;44.224;22.528;2022-07-10T13:07:38;4.93;;;2.90;;
66830;SDS011;53739;44.224;22.528;2022-07-10T13:10:05;6.65;;;3.20;;
66830;SDS011;53739;44.224;22.528;2022-07-10T13:12:32;6.85;;;2.95;;
66830;SDS011;53739;44.224;22.528;2022-07-10T13:14:59;5.63;;;2.47;;
66830;SDS011;53739;44.224;22.528;2022-07-10T13:17:26;5.40;;;2.70;;
66830;SDS011;53739;44.224;22.528;2022-07-10T13:19:52;5.70;;;2.70;;
66830;SDS011;53739;44.224;22.528;2022-07-10T13:22:18;4.60;;;2.80;;
66830;SDS011;53739;44.224;22.528;2022-07-10T13:24:44;4.57;;;3.30;;
66830;SDS011;53739;44.224;22.528;2022-07-10T13:27:10;5.45;;;3.00;;
66830;SDS011;53739;44.224;22.528;2022-07-10T13:29:36;4.72;;;3.13;;
66830;SDS011;53739;44.224;22.528;2022-07-10T13:32:02;5.72;;;3.15;;
66830;SDS011;53739;44.224;22.528;2022-07-10T13:34:28;7.43;;;3.10;;
66830;SDS011;53739;44.224;22.528;2022-07-10T13:36:54;6.63;;;2.97;;
66830;SDS011;53739;44.224;22.528;2022-07-10T13:39:21;6.85;;;3.33;;
66830;SDS011;53739;44.224;22.528;2022-07-10T13:41:47;7.13;;;3.10;;
66830;SDS011;53739;44.224;22.528;2022-07-10T13:44:13;4.30;;;3.13;;
66830;SDS011;53739;44.224;22.528;2022-07-10T13:46:39;3.75;;;2.97;;
66830;SDS011;53739;44.224;22.528;2022-07-10T13:49:05;10.25;;;2.97;;
66830;SDS011;53739;44.224;22.528;2022-07-10T13:51:31;7.38;;;3.10;;
66830;SDS011;53739;44.224;22.528;2022-07-10T13:53:57;5.63;;;2.92;;
66830;SDS011;53739;44.224;22.528;2022-07-10T13:56:23;5.57;;;3.20;;
66830;SDS011;53739;44.224;22.528;2022-07-10T13:58:50;5.25;;;2.80;;
66830;SDS011;53739;44.224;22.528;2022-07-10T14:01:17;4.57;;;2.55;;
66830;SDS011;53739;44.224;22.528;2022-07-10T14:03:43;5.82;;;2.50;;
66830;SDS011;53739;44.224;22.528;2022-07-10T14:06:09;3.50;;;2.50;;
66830;SDS011;53739;44.224;22.528;2022-07-10T14:08:35;3.85;;;2.63;;
66830;SDS011;53739;44.224;22.528;2022-07-10T14:11:01;7.07;;;2.63;;
66830;SDS011;53739;44.224;22.528;2022-07-10T14:13:27;4.97;;;2.83;;
66830;SDS011;53739;44.224;22.528;2022-07-10T14:15:53;6.70;;;2.58;;
66830;SDS011;53739;44.224;22.528;2022-07-10T14:18:19;8.88;;;3.15;;
66830;SDS011;53739;44.224;22.528;2022-07-10T14:23:28;5.68;;;2.80;;
66830;SDS011;53739;44.224;22.528;2022-07-10T14:25:53;8.00;;;3.08;;
66830;SDS011;53739;44.224;22.528;2022-07-10T14:28:20;4.55;;;2.60;;
66830;SDS011;53739;44.224;22.528;2022-07-10T14:30:49;4.60;;;2.75;;
66830;SDS011;53739;44.224;22.528;2022-07-10T14:33:15;6.63;;;3.33;;
66830;SDS011;53739;44.224;22.528;2022-07-10T14:35:42;8.20;;;2.40;;
66830;SDS011;53739;44.224;22.528;2022-07-10T14:38:08;5.03;;;2.30;;
66830;SDS011;53739;44.224;22.528;2022-07-10T14:40:34;6.07;;;2.28;;
66830;SDS011;53739;44.224;22.528;2022-07-10T14:42:59;5.88;;;2.50;;
66830;SDS011;53739;44.224;22.528;2022-07-10T14:45:26;7.43;;;2.67;;
66830;SDS011;53739;44.224;22.528;2022-07-10T14:47:52;4.38;;;2.50;;
66830;SDS011;53739;44.224;22.528;2022-07-10T14:50:19;5.68;;;2.50;;
66830;SDS011;53739;44.224;22.528;2022-07-10T14:52:45;5.13;;;2.78;;
66830;SDS011;53739;44.224;22.528;2022-07-10T14:55:11;5.55;;;2.70;;
66830;SDS011;53739;44.224;22.528;2022-07-10T14:57:37;6.63;;;2.70;;
66830;SDS011;53739;44.224;22.528;2022-07-10T15:00:03;4.18;;;2.42;;
66830;SDS011;53739;44.224;22.528;2022-07-10T15:02:30;5.03;;;2.75;;
66830;SDS011;53739;44.224;22.528;2022-07-10T15:04:55;4.70;;;2.53;;
66830;SDS011;53739;44.224;22.528;2022-07-10T15:07:21;4.72;;;2.75;;
66830;SDS011;53739;44.224;22.528;2022-07-10T15:09:47;3.63;;;2.33;;
66830;SDS011;53739;44.224;22.528;2022-07-10T15:12:13;5.13;;;2.13;;
66830;SDS011;53739;44.224;22.528;2022-07-10T15:14:39;5.93;;;2.40;;
66830;SDS011;53739;44.224;22.528;2022-07-10T15:17:05;4.65;;;2.30;;